sensor_id;sensor_type;location;lat;lon;timestamp;P1;durP1;ratioP1;P2;durP2;ratioP2
13034;SDS011;6584;48.022;11.810;2022-10-26T00:01:28;4.03;;;2.42;;
13034;SDS011;6584;48.022;11.810;2022-10-26T00:03:54;2.78;;;2.42;;
13034;SDS011;6584;48.022;11.810;2022-10-26T00:06:21;3.78;;;2.38;;
13034;SDS011;6584;48.022;11.810;2022-10-26T00:08:55;3.67;;;2.35;;
13034;SDS011;6584;48.022;11.810;2022-10-26T00:11:21;2.50;;;2.22;;
13034;SDS011;6584;48.022;11.810;2022-10-26T00:13:47;4.07;;;2.42;;
13034;SDS011;6584;48.022;11.810;2022-10-26T00:16:14;2.33;;;2.10;;
13034;SDS011;6584;48.022;11.810;2022-10-26T00:18:42;3.10;;;2.08;;
13034;SDS011;6584;48.022;11.810;2022-10-26T00:21:08;3.67;;;2.10;;
13034;SDS011;6584;48.022;11.810;2022-10-26T00:23:35;3.10;;;2.10;;
13034;SDS011;6584;48.022;11.810;2022-10-26T00:26:01;2.13;;;2.00;;
13034;SDS011;6584;48.022;11.810;2022-10-26T00:28:27;7.03;;;2.30;;
13034;SDS011;6584;48.022;11.810;2022-10-26T00:30:53;4.65;;;2.30;;
13034;SDS011;6584;48.022;11.810;2022-10-26T00:33:19;4.25;;;1.75;;
13034;SDS011;6584;48.022;11.810;2022-10-26T00:35:54;2.78;;;2.00;;
13034;SDS011;6584;48.022;11.810;2022-10-26T00:38:20;3.80;;;1.88;;
13034;SDS011;6584;48.022;11.810;2022-10-26T00:40:46;4.78;;;2.20;;
13034;SDS011;6584;48.022;11.810;2022-10-26T00:43:15;2.40;;;1.80;;
13034;SDS011;6584;48.022;11.810;2022-10-26T00:45:44;3.38;;;1.92;;
13034;SDS011;6584;48.022;11.810;2022-10-26T00:48:18;4.90;;;1.90;;
13034;SDS011;6584;48.022;11.810;2022-10-26T00:50:50;3.30;;;1.85;;
13034;SDS011;6584;48.022;11.810;2022-10-26T00:53:17;2.70;;;1.90;;
13034;SDS011;6584;48.022;11.810;2022-10-26T00:55:45;4.25;;;1.80;;
13034;SDS011;6584;48.022;11.810;2022-10-26T00:58:12;3.78;;;2.10;;
13034;SDS011;6584;48.022;11.810;2022-10-26T01:00:39;2.17;;;1.88;;
13034;SDS011;6584;48.022;11.810;2022-10-26T01:03:06;2.80;;;1.98;;
13034;SDS011;6584;48.022;11.810;2022-10-26T01:05:33;1.98;;;1.77;;
13034;SDS011;6584;48.022;11.810;2022-10-26T01:08:01;4.60;;;2.13;;
13034;SDS011;6584;48.022;11.810;2022-10-26T01:10:27;2.28;;;1.85;;
13034;SDS011;6584;48.022;11.810;2022-10-26T01:12:56;3.88;;;2.25;;
13034;SDS011;6584;48.022;11.810;2022-10-26T01:15:23;3.88;;;2.13;;
13034;SDS011;6584;48.022;11.810;2022-10-26T01:18:02;3.50;;;1.90;;
13034;SDS011;6584;48.022;11.810;2022-10-26T01:27:02;4.22;;;1.85;;
13034;SDS011;6584;48.022;11.810;2022-10-26T01:29:53;2.40;;;1.95;;
13034;SDS011;6584;48.022;11.810;2022-10-26T01:35:07;3.70;;;2.30;;
13034;SDS011;6584;48.022;11.810;2022-10-26T01:37:57;2.10;;;1.90;;
13034;SDS011;6584;48.022;11.810;2022-10-26T01:43:45;3.97;;;1.90;;
13034;SDS011;6584;48.022;11.810;2022-10-26T01:46:17;4.78;;;2.00;;
13034;SDS011;6584;48.022;11.810;2022-10-26T01:48:46;3.00;;;1.98;;
13034;SDS011;6584;48.022;11.810;2022-10-26T01:51:14;3.80;;;2.10;;
13034;SDS011;6584;48.022;11.810;2022-10-26T01:53:42;2.85;;;2.10;;
13034;SDS011;6584;48.022;11.810;2022-10-26T01:56:17;2.40;;;2.15;;
13034;SDS011;6584;48.022;11.810;2022-10-26T02:04:30;2.88;;;2.42;;
13034;SDS011;6584;48.022;11.810;2022-10-26T02:07:24;4.38;;;2.13;;
13034;SDS011;6584;48.022;11.810;2022-10-26T02:13:00;3.55;;;2.20;;
13034;SDS011;6584;48.022;11.810;2022-10-26T02:15:57;4.85;;;2.22;;
13034;SDS011;6584;48.022;11.810;2022-10-26T02:18:50;2.53;;;2.15;;
13034;SDS011;6584;48.022;11.810;2022-10-26T02:21:40;2.53;;;1.70;;
13034;SDS011;6584;48.022;11.810;2022-10-26T02:24:10;3.67;;;1.75;;
13034;SDS011;6584;48.022;11.810;2022-10-26T02:26:38;3.33;;;2.22;;
13034;SDS011;6584;48.022;11.810;2022-10-26T02:29:06;3.15;;;1.98;;
13034;SDS011;6584;48.022;11.810;2022-10-26T02:31:36;2.42;;;1.70;;
13034;SDS011;6584;48.022;11.810;2022-10-26T02:34:06;5.28;;;2.05;;
13034;SDS011;6584;48.022;11.810;2022-10-26T02:36:35;4.22;;;1.98;;
13034;SDS011;6584;48.022;11.810;2022-10-26T02:39:05;1.83;;;1.42;;
13034;SDS011;6584;48.022;11.810;2022-10-26T02:41:33;2.33;;;1.63;;
13034;SDS011;6584;48.022;11.810;2022-10-26T02:44:03;1.92;;;1.50;;
13034;SDS011;6584;48.022;11.810;2022-10-26T02:46:30;2.40;;;1.60;;
13034;SDS011;6584;48.022;11.810;2022-10-26T02:48:56;1.67;;;1.58;;
13034;SDS011;6584;48.022;11.810;2022-10-26T02:51:33;1.50;;;1.40;;
13034;SDS011;6584;48.022;11.810;2022-10-26T02:56:53;3.45;;;1.30;;
13034;SDS011;6584;48.022;11.810;2022-10-26T02:59:47;2.97;;;1.50;;
13034;SDS011;6584;48.022;11.810;2022-10-26T03:02:14;1.42;;;1.20;;
13034;SDS011;6584;48.022;11.810;2022-10-26T03:04:41;2.42;;;1.70;;
13034;SDS011;6584;48.022;11.810;2022-10-26T03:07:07;1.20;;;1.10;;
13034;SDS011;6584;48.022;11.810;2022-10-26T03:09:33;2.63;;;1.33;;
13034;SDS011;6584;48.022;11.810;2022-10-26T03:11:58;1.58;;;1.40;;
13034;SDS011;6584;48.022;11.810;2022-10-26T03:14:24;1.83;;;1.73;;
13034;SDS011;6584;48.022;11.810;2022-10-26T03:16:49;4.97;;;3.42;;
13034;SDS011;6584;48.022;11.810;2022-10-26T03:19:15;5.40;;;5.00;;
13034;SDS011;6584;48.022;11.810;2022-10-26T03:21:41;4.50;;;4.10;;
13034;SDS011;6584;48.022;11.810;2022-10-26T03:24:07;3.65;;;3.22;;
13034;SDS011;6584;48.022;11.810;2022-10-26T03:26:33;1.92;;;1.30;;
13034;SDS011;6584;48.022;11.810;2022-10-26T03:28:58;1.48;;;1.30;;
13034;SDS011;6584;48.022;11.810;2022-10-26T03:31:24;3.58;;;1.50;;
13034;SDS011;6584;48.022;11.810;2022-10-26T03:33:50;1.60;;;1.20;;
13034;SDS011;6584;48.022;11.810;2022-10-26T03:36:15;2.60;;;1.25;;
13034;SDS011;6584;48.022;11.810;2022-10-26T03:38:41;4.75;;;1.20;;
13034;SDS011;6584;48.022;11.810;2022-10-26T03:41:06;1.50;;;1.33;;
13034;SDS011;6584;48.022;11.810;2022-10-26T03:43:32;2.13;;;1.27;;
13034;SDS011;6584;48.022;11.810;2022-10-26T03:45:57;2.35;;;1.25;;
13034;SDS011;6584;48.022;11.810;2022-10-26T03:48:23;3.08;;;1.20;;
13034;SDS011;6584;48.022;11.810;2022-10-26T03:50:49;1.98;;;1.27;;
13034;SDS011;6584;48.022;11.810;2022-10-26T03:53:14;1.38;;;1.20;;
13034;SDS011;6584;48.022;11.810;2022-10-26T03:55:42;3.53;;;2.58;;
13034;SDS011;6584;48.022;11.810;2022-10-26T03:58:08;3.28;;;1.90;;
13034;SDS011;6584;48.022;11.810;2022-10-26T04:00:34;3.13;;;1.50;;
13034;SDS011;6584;48.022;11.810;2022-10-26T04:02:59;1.52;;;1.40;;
13034;SDS011;6584;48.022;11.810;2022-10-26T04:05:26;1.52;;;1.38;;
13034;SDS011;6584;48.022;11.810;2022-10-26T04:07:53;5.28;;;4.88;;
13034;SDS011;6584;48.022;11.810;2022-10-26T04:10:28;8.63;;;7.82;;
13034;SDS011;6584;48.022;11.810;2022-10-26T04:12:54;9.23;;;8.38;;
13034;SDS011;6584;48.022;11.810;2022-10-26T04:15:20;4.28;;;3.30;;
13034;SDS011;6584;48.022;11.810;2022-10-26T04:17:46;2.50;;;1.90;;
13034;SDS011;6584;48.022;11.810;2022-10-26T04:20:12;1.60;;;1.30;;
13034;SDS011;6584;48.022;11.810;2022-10-26T04:22:38;1.52;;;1.25;;
13034;SDS011;6584;48.022;11.810;2022-10-26T04:25:04;3.55;;;1.50;;
13034;SDS011;6584;48.022;11.810;2022-10-26T04:27:30;1.80;;;1.70;;
13034;SDS011;6584;48.022;11.810;2022-10-26T04:29:56;2.60;;;2.20;;
13034;SDS011;6584;48.022;11.810;2022-10-26T04:32:21;4.30;;;2.60;;
13034;SDS011;6584;48.022;11.810;2022-10-26T04:34:47;3.88;;;2.55;;
13034;SDS011;6584;48.022;11.810;2022-10-26T04:37:13;3.70;;;1.67;;
13034;SDS011;6584;48.022;11.810;2022-10-26T04:39:38;5.47;;;1.73;;
13034;SDS011;6584;48.022;11.810;2022-10-26T04:42:04;1.95;;;1.70;;
13034;SDS011;6584;48.022;11.810;2022-10-26T04:44:29;1.60;;;1.50;;
13034;SDS011;6584;48.022;11.810;2022-10-26T04:46:55;3.70;;;1.67;;
13034;SDS011;6584;48.022;11.810;2022-10-26T04:49:20;2.25;;;1.40;;
13034;SDS011;6584;48.022;11.810;2022-10-26T04:51:46;3.60;;;1.40;;
13034;SDS011;6584;48.022;11.810;2022-10-26T04:54:12;2.90;;;1.60;;
13034;SDS011;6584;48.022;11.810;2022-10-26T04:56:37;2.90;;;1.70;;
13034;SDS011;6584;48.022;11.810;2022-10-26T04:59:03;2.85;;;1.42;;
13034;SDS011;6584;48.022;11.810;2022-10-26T05:01:29;1.90;;;1.70;;
13034;SDS011;6584;48.022;11.810;2022-10-26T05:03:55;2.58;;;1.65;;
13034;SDS011;6584;48.022;11.810;2022-10-26T05:06:21;2.97;;;1.50;;
13034;SDS011;6584;48.022;11.810;2022-10-26T05:08:47;1.98;;;1.33;;
13034;SDS011;6584;48.022;11.810;2022-10-26T05:11:13;2.30;;;1.50;;
13034;SDS011;6584;48.022;11.810;2022-10-26T05:13:38;3.60;;;1.52;;
13034;SDS011;6584;48.022;11.810;2022-10-26T05:16:05;2.60;;;1.58;;
13034;SDS011;6584;48.022;11.810;2022-10-26T05:18:31;2.35;;;1.30;;
13034;SDS011;6584;48.022;11.810;2022-10-26T05:20:56;1.73;;;1.40;;
13034;SDS011;6584;48.022;11.810;2022-10-26T05:23:22;1.55;;;1.35;;
13034;SDS011;6584;48.022;11.810;2022-10-26T05:25:47;5.20;;;1.52;;
13034;SDS011;6584;48.022;11.810;2022-10-26T05:28:13;2.08;;;1.70;;
13034;SDS011;6584;48.022;11.810;2022-10-26T05:30:41;4.50;;;1.50;;
13034;SDS011;6584;48.022;11.810;2022-10-26T05:33:08;2.38;;;1.50;;
13034;SDS011;6584;48.022;11.810;2022-10-26T05:35:35;4.32;;;1.63;;
13034;SDS011;6584;48.022;11.810;2022-10-26T05:38:14;3.47;;;1.60;;
13034;SDS011;6584;48.022;11.810;2022-10-26T05:40:45;3.83;;;1.52;;
13034;SDS011;6584;48.022;11.810;2022-10-26T05:43:15;4.47;;;1.77;;
13034;SDS011;6584;48.022;11.810;2022-10-26T05:45:41;5.30;;;1.60;;
13034;SDS011;6584;48.022;11.810;2022-10-26T05:48:07;2.97;;;1.70;;
13034;SDS011;6584;48.022;11.810;2022-10-26T05:50:32;2.92;;;1.60;;
13034;SDS011;6584;48.022;11.810;2022-10-26T05:52:58;3.45;;;1.42;;
13034;SDS011;6584;48.022;11.810;2022-10-26T05:55:24;2.45;;;1.50;;
13034;SDS011;6584;48.022;11.810;2022-10-26T05:57:50;3.95;;;1.65;;
13034;SDS011;6584;48.022;11.810;2022-10-26T06:00:17;5.03;;;1.90;;
13034;SDS011;6584;48.022;11.810;2022-10-26T06:05:21;3.40;;;1.70;;
13034;SDS011;6584;48.022;11.810;2022-10-26T06:07:51;7.03;;;5.47;;
13034;SDS011;6584;48.022;11.810;2022-10-26T06:10:17;9.25;;;4.82;;
13034;SDS011;6584;48.022;11.810;2022-10-26T06:12:43;9.80;;;7.82;;
13034;SDS011;6584;48.022;11.810;2022-10-26T06:15:19;8.20;;;5.75;;
13034;SDS011;6584;48.022;11.810;2022-10-26T06:23:52;4.30;;;2.20;;
13034;SDS011;6584;48.022;11.810;2022-10-26T06:31:55;25.63;;;19.17;;
13034;SDS011;6584;48.022;11.810;2022-10-26T06:34:26;9.18;;;6.93;;
13034;SDS011;6584;48.022;11.810;2022-10-26T06:36:57;8.73;;;6.05;;
13034;SDS011;6584;48.022;11.810;2022-10-26T06:39:24;14.57;;;10.82;;
13034;SDS011;6584;48.022;11.810;2022-10-26T06:41:56;11.40;;;8.27;;
13034;SDS011;6584;48.022;11.810;2022-10-26T06:44:22;18.25;;;10.82;;
13034;SDS011;6584;48.022;11.810;2022-10-26T06:46:58;17.17;;;10.38;;
13034;SDS011;6584;48.022;11.810;2022-10-26T06:52:15;14.70;;;8.75;;
13034;SDS011;6584;48.022;11.810;2022-10-26T06:57:12;7.65;;;4.25;;
13034;SDS011;6584;48.022;11.810;2022-10-26T06:59:42;14.57;;;7.53;;
13034;SDS011;6584;48.022;11.810;2022-10-26T07:02:10;12.25;;;7.38;;
13034;SDS011;6584;48.022;11.810;2022-10-26T07:04:37;16.10;;;12.18;;
13034;SDS011;6584;48.022;11.810;2022-10-26T07:07:02;6.38;;;5.78;;
13034;SDS011;6584;48.022;11.810;2022-10-26T07:09:28;3.60;;;3.30;;
13034;SDS011;6584;48.022;11.810;2022-10-26T07:11:54;4.35;;;2.63;;
13034;SDS011;6584;48.022;11.810;2022-10-26T07:14:19;3.22;;;2.30;;
13034;SDS011;6584;48.022;11.810;2022-10-26T07:16:45;4.97;;;1.55;;
13034;SDS011;6584;48.022;11.810;2022-10-26T07:19:10;2.22;;;1.20;;
13034;SDS011;6584;48.022;11.810;2022-10-26T07:21:36;2.40;;;1.50;;
13034;SDS011;6584;48.022;11.810;2022-10-26T07:24:02;4.65;;;1.80;;
13034;SDS011;6584;48.022;11.810;2022-10-26T07:26:27;2.42;;;1.88;;
13034;SDS011;6584;48.022;11.810;2022-10-26T07:28:53;2.22;;;1.38;;
13034;SDS011;6584;48.022;11.810;2022-10-26T07:31:18;3.40;;;1.73;;
13034;SDS011;6584;48.022;11.810;2022-10-26T07:33:44;4.47;;;1.65;;
13034;SDS011;6584;48.022;11.810;2022-10-26T07:36:10;2.65;;;1.40;;
13034;SDS011;6584;48.022;11.810;2022-10-26T07:38:37;2.30;;;1.80;;
13034;SDS011;6584;48.022;11.810;2022-10-26T07:41:03;4.28;;;2.78;;
13034;SDS011;6584;48.022;11.810;2022-10-26T07:43:29;3.95;;;2.35;;
13034;SDS011;6584;48.022;11.810;2022-10-26T07:45:55;2.17;;;1.30;;
13034;SDS011;6584;48.022;11.810;2022-10-26T07:48:20;5.75;;;1.30;;
13034;SDS011;6584;48.022;11.810;2022-10-26T07:50:46;2.65;;;1.60;;
13034;SDS011;6584;48.022;11.810;2022-10-26T07:53:12;2.20;;;1.52;;
13034;SDS011;6584;48.022;11.810;2022-10-26T07:55:37;3.83;;;1.65;;
13034;SDS011;6584;48.022;11.810;2022-10-26T07:58:03;1.83;;;1.30;;
13034;SDS011;6584;48.022;11.810;2022-10-26T08:00:29;2.20;;;1.40;;
13034;SDS011;6584;48.022;11.810;2022-10-26T08:02:55;1.30;;;1.20;;
13034;SDS011;6584;48.022;11.810;2022-10-26T08:05:21;2.35;;;1.55;;
13034;SDS011;6584;48.022;11.810;2022-10-26T08:07:47;1.85;;;1.70;;
13034;SDS011;6584;48.022;11.810;2022-10-26T08:10:13;1.67;;;1.58;;
13034;SDS011;6584;48.022;11.810;2022-10-26T08:12:40;2.60;;;1.42;;
13034;SDS011;6584;48.022;11.810;2022-10-26T08:15:06;1.70;;;1.58;;
13034;SDS011;6584;48.022;11.810;2022-10-26T08:17:32;1.40;;;1.30;;
13034;SDS011;6584;48.022;11.810;2022-10-26T08:19:58;1.40;;;1.20;;
13034;SDS011;6584;48.022;11.810;2022-10-26T08:22:24;3.58;;;1.55;;
13034;SDS011;6584;48.022;11.810;2022-10-26T08:24:49;3.83;;;1.50;;
13034;SDS011;6584;48.022;11.810;2022-10-26T08:27:15;1.95;;;1.20;;
13034;SDS011;6584;48.022;11.810;2022-10-26T08:29:41;2.65;;;1.73;;
13034;SDS011;6584;48.022;11.810;2022-10-26T08:32:07;2.42;;;1.85;;
13034;SDS011;6584;48.022;11.810;2022-10-26T08:34:32;4.13;;;2.40;;
13034;SDS011;6584;48.022;11.810;2022-10-26T08:36:58;2.17;;;1.50;;
13034;SDS011;6584;48.022;11.810;2022-10-26T08:39:24;2.97;;;1.52;;
13034;SDS011;6584;48.022;11.810;2022-10-26T08:41:54;2.45;;;1.40;;
13034;SDS011;6584;48.022;11.810;2022-10-26T08:44:44;3.08;;;1.80;;
13034;SDS011;6584;48.022;11.810;2022-10-26T08:47:13;1.88;;;1.50;;
13034;SDS011;6584;48.022;11.810;2022-10-26T08:49:57;3.70;;;1.60;;
13034;SDS011;6584;48.022;11.810;2022-10-26T08:52:35;1.80;;;1.70;;
13034;SDS011;6584;48.022;11.810;2022-10-26T08:55:06;3.60;;;1.52;;
13034;SDS011;6584;48.022;11.810;2022-10-26T08:57:39;3.00;;;1.65;;
13034;SDS011;6584;48.022;11.810;2022-10-26T09:00:10;1.58;;;1.42;;
13034;SDS011;6584;48.022;11.810;2022-10-26T09:02:48;3.33;;;1.63;;
13034;SDS011;6584;48.022;11.810;2022-10-26T09:05:15;1.67;;;1.20;;
13034;SDS011;6584;48.022;11.810;2022-10-26T09:14:00;2.05;;;1.50;;
13034;SDS011;6584;48.022;11.810;2022-10-26T09:25:22;2.50;;;1.60;;
13034;SDS011;6584;48.022;11.810;2022-10-26T09:27:50;2.08;;;1.58;;
13034;SDS011;6584;48.022;11.810;2022-10-26T09:30:22;2.60;;;1.77;;
13034;SDS011;6584;48.022;11.810;2022-10-26T09:32:49;2.47;;;2.00;;
13034;SDS011;6584;48.022;11.810;2022-10-26T09:35:22;2.08;;;1.63;;
13034;SDS011;6584;48.022;11.810;2022-10-26T09:37:54;2.95;;;1.73;;
13034;SDS011;6584;48.022;11.810;2022-10-26T09:40:31;5.38;;;1.58;;
13034;SDS011;6584;48.022;11.810;2022-10-26T09:43:04;4.35;;;1.52;;
13034;SDS011;6584;48.022;11.810;2022-10-26T09:45:45;2.30;;;1.50;;
13034;SDS011;6584;48.022;11.810;2022-10-26T09:50:44;3.67;;;1.40;;
13034;SDS011;6584;48.022;11.810;2022-10-26T09:53:12;3.97;;;1.60;;
13034;SDS011;6584;48.022;11.810;2022-10-26T09:55:40;2.85;;;1.58;;
13034;SDS011;6584;48.022;11.810;2022-10-26T09:58:14;3.15;;;1.48;;
13034;SDS011;6584;48.022;11.810;2022-10-26T10:00:47;1.50;;;1.40;;
13034;SDS011;6584;48.022;11.810;2022-10-26T10:03:20;2.10;;;1.50;;
13034;SDS011;6584;48.022;11.810;2022-10-26T10:05:50;1.70;;;1.45;;
13034;SDS011;6584;48.022;11.810;2022-10-26T10:11:16;2.47;;;1.42;;
13034;SDS011;6584;48.022;11.810;2022-10-26T10:13:40;2.10;;;1.58;;
13034;SDS011;6584;48.022;11.810;2022-10-26T10:18:53;3.45;;;1.70;;
13034;SDS011;6584;48.022;11.810;2022-10-26T10:21:20;2.55;;;1.58;;
13034;SDS011;6584;48.022;11.810;2022-10-26T10:23:57;4.03;;;1.67;;
13034;SDS011;6584;48.022;11.810;2022-10-26T10:26:22;4.32;;;1.48;;
13034;SDS011;6584;48.022;11.810;2022-10-26T10:28:58;3.45;;;1.50;;
13034;SDS011;6584;48.022;11.810;2022-10-26T10:31:31;5.72;;;1.63;;
13034;SDS011;6584;48.022;11.810;2022-10-26T10:33:58;4.28;;;1.50;;
13034;SDS011;6584;48.022;11.810;2022-10-26T10:36:27;3.72;;;1.50;;
13034;SDS011;6584;48.022;11.810;2022-10-26T10:38:54;3.67;;;1.42;;
13034;SDS011;6584;48.022;11.810;2022-10-26T10:41:32;2.45;;;1.50;;
13034;SDS011;6584;48.022;11.810;2022-10-26T10:44:06;2.20;;;1.70;;
13034;SDS011;6584;48.022;11.810;2022-10-26T10:46:41;2.67;;;1.60;;
13034;SDS011;6584;48.022;11.810;2022-10-26T10:49:16;2.88;;;1.50;;
13034;SDS011;6584;48.022;11.810;2022-10-26T10:51:52;4.05;;;1.65;;
13034;SDS011;6584;48.022;11.810;2022-10-26T10:54:29;4.43;;;1.70;;
13034;SDS011;6584;48.022;11.810;2022-10-26T10:59:43;2.47;;;1.50;;
13034;SDS011;6584;48.022;11.810;2022-10-26T11:02:28;3.90;;;1.50;;
13034;SDS011;6584;48.022;11.810;2022-10-26T11:16:21;2.70;;;1.73;;
13034;SDS011;6584;48.022;11.810;2022-10-26T11:18:54;3.97;;;1.70;;
13034;SDS011;6584;48.022;11.810;2022-10-26T11:21:42;3.58;;;2.00;;
13034;SDS011;6584;48.022;11.810;2022-10-26T11:27:02;2.75;;;1.50;;
13034;SDS011;6584;48.022;11.810;2022-10-26T11:32:00;4.15;;;1.52;;
13034;SDS011;6584;48.022;11.810;2022-10-26T11:34:42;4.22;;;1.70;;
13034;SDS011;6584;48.022;11.810;2022-10-26T11:37:21;3.63;;;1.70;;
13034;SDS011;6584;48.022;11.810;2022-10-26T11:42:45;5.50;;;2.00;;
13034;SDS011;6584;48.022;11.810;2022-10-26T11:45:40;4.18;;;1.80;;
13034;SDS011;6584;48.022;11.810;2022-10-26T11:48:23;5.30;;;1.80;;
13034;SDS011;6584;48.022;11.810;2022-10-26T11:50:56;3.40;;;1.55;;
13034;SDS011;6584;48.022;11.810;2022-10-26T11:53:25;2.90;;;1.38;;
13034;SDS011;6584;48.022;11.810;2022-10-26T11:56:00;3.28;;;1.70;;
13034;SDS011;6584;48.022;11.810;2022-10-26T11:58:27;2.35;;;1.63;;
13034;SDS011;6584;48.022;11.810;2022-10-26T12:01:07;3.58;;;1.70;;
13034;SDS011;6584;48.022;11.810;2022-10-26T12:03:36;2.67;;;1.60;;
13034;SDS011;6584;48.022;11.810;2022-10-26T12:06:07;3.30;;;1.58;;
13034;SDS011;6584;48.022;11.810;2022-10-26T12:08:41;4.22;;;1.80;;
13034;SDS011;6584;48.022;11.810;2022-10-26T12:17:02;4.97;;;1.70;;
13034;SDS011;6584;48.022;11.810;2022-10-26T12:22:46;5.55;;;1.83;;
13034;SDS011;6584;48.022;11.810;2022-10-26T12:41:06;3.20;;;1.80;;
13034;SDS011;6584;48.022;11.810;2022-10-26T12:43:41;3.25;;;2.08;;
13034;SDS011;6584;48.022;11.810;2022-10-26T12:48:42;5.75;;;2.38;;
13034;SDS011;6584;48.022;11.810;2022-10-26T12:53:48;4.38;;;1.95;;
13034;SDS011;6584;48.022;11.810;2022-10-26T12:56:23;8.23;;;2.38;;
13034;SDS011;6584;48.022;11.810;2022-10-26T13:04:39;4.55;;;2.28;;
13034;SDS011;6584;48.022;11.810;2022-10-26T13:07:22;6.22;;;2.45;;
13034;SDS011;6584;48.022;11.810;2022-10-26T13:09:57;6.53;;;2.33;;
13034;SDS011;6584;48.022;11.810;2022-10-26T13:12:26;4.93;;;2.55;;
13034;SDS011;6584;48.022;11.810;2022-10-26T13:15:04;10.63;;;2.40;;
13034;SDS011;6584;48.022;11.810;2022-10-26T13:17:42;6.55;;;2.67;;
13034;SDS011;6584;48.022;11.810;2022-10-26T13:20:25;5.07;;;2.47;;
13034;SDS011;6584;48.022;11.810;2022-10-26T13:22:52;6.47;;;2.80;;
13034;SDS011;6584;48.022;11.810;2022-10-26T13:25:22;5.80;;;2.53;;
13034;SDS011;6584;48.022;11.810;2022-10-26T13:28:01;4.45;;;2.58;;
13034;SDS011;6584;48.022;11.810;2022-10-26T13:32:58;6.78;;;2.70;;
13034;SDS011;6584;48.022;11.810;2022-10-26T13:35:25;8.65;;;2.60;;
13034;SDS011;6584;48.022;11.810;2022-10-26T13:37:55;5.22;;;2.28;;
13034;SDS011;6584;48.022;11.810;2022-10-26T13:40:25;8.18;;;2.70;;
13034;SDS011;6584;48.022;11.810;2022-10-26T13:42:56;5.95;;;2.85;;
13034;SDS011;6584;48.022;11.810;2022-10-26T13:45:28;4.95;;;2.45;;
13034;SDS011;6584;48.022;11.810;2022-10-26T13:52:00;7.93;;;2.42;;
13034;SDS011;6584;48.022;11.810;2022-10-26T13:54:06;6.45;;;2.17;;
13034;SDS011;6584;48.022;11.810;2022-10-26T13:56:54;8.50;;;3.00;;
13034;SDS011;6584;48.022;11.810;2022-10-26T13:59:25;6.72;;;2.22;;
13034;SDS011;6584;48.022;11.810;2022-10-26T14:04:38;4.88;;;2.55;;
13034;SDS011;6584;48.022;11.810;2022-10-26T14:07:04;7.85;;;3.13;;
13034;SDS011;6584;48.022;11.810;2022-10-26T14:09:29;8.32;;;3.13;;
13034;SDS011;6584;48.022;11.810;2022-10-26T14:11:56;6.97;;;3.72;;
13034;SDS011;6584;48.022;11.810;2022-10-26T14:14:30;14.13;;;12.23;;
13034;SDS011;6584;48.022;11.810;2022-10-26T14:16:58;15.10;;;11.65;;
13034;SDS011;6584;48.022;11.810;2022-10-26T14:19:32;14.40;;;11.95;;
13034;SDS011;6584;48.022;11.810;2022-10-26T14:22:00;27.25;;;22.88;;
13034;SDS011;6584;48.022;11.810;2022-10-26T14:24:27;17.95;;;13.63;;
13034;SDS011;6584;48.022;11.810;2022-10-26T14:26:55;10.15;;;7.40;;
13034;SDS011;6584;48.022;11.810;2022-10-26T14:29:21;7.22;;;3.80;;
13034;SDS011;6584;48.022;11.810;2022-10-26T14:31:49;9.50;;;3.95;;
13034;SDS011;6584;48.022;11.810;2022-10-26T14:34:15;9.38;;;4.07;;
13034;SDS011;6584;48.022;11.810;2022-10-26T14:41:58;7.13;;;3.15;;
13034;SDS011;6584;48.022;11.810;2022-10-26T14:44:25;7.57;;;2.60;;
13034;SDS011;6584;48.022;11.810;2022-10-26T14:46:53;5.00;;;2.60;;
13034;SDS011;6584;48.022;11.810;2022-10-26T14:49:20;5.47;;;2.60;;
13034;SDS011;6584;48.022;11.810;2022-10-26T14:51:57;13.82;;;4.05;;
13034;SDS011;6584;48.022;11.810;2022-10-26T14:54:25;10.43;;;4.05;;
13034;SDS011;6584;48.022;11.810;2022-10-26T14:56:53;15.65;;;3.78;;
13034;SDS011;6584;48.022;11.810;2022-10-26T15:01:51;14.20;;;3.50;;
13034;SDS011;6584;48.022;11.810;2022-10-26T15:04:40;7.43;;;2.70;;
13034;SDS011;6584;48.022;11.810;2022-10-26T15:09:51;8.98;;;3.03;;
13034;SDS011;6584;48.022;11.810;2022-10-26T15:15:09;7.32;;;2.97;;
13034;SDS011;6584;48.022;11.810;2022-10-26T15:17:39;9.68;;;3.00;;
13034;SDS011;6584;48.022;11.810;2022-10-26T15:20:07;10.73;;;3.25;;
13034;SDS011;6584;48.022;11.810;2022-10-26T15:22:48;8.68;;;3.20;;
13034;SDS011;6584;48.022;11.810;2022-10-26T15:25:17;8.98;;;3.15;;
13034;SDS011;6584;48.022;11.810;2022-10-26T15:27:47;4.38;;;3.38;;
13034;SDS011;6584;48.022;11.810;2022-10-26T15:30:22;6.47;;;2.80;;
13034;SDS011;6584;48.022;11.810;2022-10-26T15:32:50;5.25;;;2.35;;
13034;SDS011;6584;48.022;11.810;2022-10-26T15:35:24;6.70;;;2.78;;
13034;SDS011;6584;48.022;11.810;2022-10-26T15:37:52;17.52;;;3.03;;
13034;SDS011;6584;48.022;11.810;2022-10-26T15:40:19;11.48;;;6.47;;
13034;SDS011;6584;48.022;11.810;2022-10-26T15:42:49;12.05;;;7.13;;
13034;SDS011;6584;48.022;11.810;2022-10-26T15:47:51;16.45;;;8.57;;
13034;SDS011;6584;48.022;11.810;2022-10-26T15:50:19;16.73;;;10.10;;
13034;SDS011;6584;48.022;11.810;2022-10-26T15:52:47;15.27;;;10.57;;
13034;SDS011;6584;48.022;11.810;2022-10-26T15:55:13;15.55;;;12.18;;
13034;SDS011;6584;48.022;11.810;2022-10-26T15:57:39;20.50;;;13.55;;
13034;SDS011;6584;48.022;11.810;2022-10-26T16:00:05;15.13;;;12.15;;
13034;SDS011;6584;48.022;11.810;2022-10-26T16:02:34;14.48;;;11.90;;
13034;SDS011;6584;48.022;11.810;2022-10-26T16:05:02;15.45;;;9.98;;
13034;SDS011;6584;48.022;11.810;2022-10-26T16:07:28;11.80;;;10.25;;
13034;SDS011;6584;48.022;11.810;2022-10-26T16:09:54;9.43;;;7.47;;
13034;SDS011;6584;48.022;11.810;2022-10-26T16:12:19;9.40;;;6.22;;
13034;SDS011;6584;48.022;11.810;2022-10-26T16:14:45;9.27;;;4.90;;
13034;SDS011;6584;48.022;11.810;2022-10-26T16:17:10;7.25;;;4.35;;
13034;SDS011;6584;48.022;11.810;2022-10-26T16:19:36;8.15;;;4.60;;
13034;SDS011;6584;48.022;11.810;2022-10-26T16:22:02;8.80;;;5.22;;
13034;SDS011;6584;48.022;11.810;2022-10-26T16:24:28;9.90;;;5.40;;
13034;SDS011;6584;48.022;11.810;2022-10-26T16:26:54;9.70;;;5.38;;
13034;SDS011;6584;48.022;11.810;2022-10-26T16:29:20;10.93;;;6.85;;
13034;SDS011;6584;48.022;11.810;2022-10-26T16:31:46;8.90;;;6.60;;
13034;SDS011;6584;48.022;11.810;2022-10-26T16:34:12;9.63;;;6.93;;
13034;SDS011;6584;48.022;11.810;2022-10-26T16:36:38;11.73;;;7.15;;
13034;SDS011;6584;48.022;11.810;2022-10-26T16:39:04;9.55;;;7.25;;
13034;SDS011;6584;48.022;11.810;2022-10-26T16:41:29;14.43;;;7.70;;
13034;SDS011;6584;48.022;11.810;2022-10-26T16:43:59;13.55;;;8.57;;
13034;SDS011;6584;48.022;11.810;2022-10-26T16:46:24;12.20;;;9.07;;
13034;SDS011;6584;48.022;11.810;2022-10-26T16:48:50;12.95;;;9.20;;
13034;SDS011;6584;48.022;11.810;2022-10-26T16:51:20;14.13;;;9.85;;
13034;SDS011;6584;48.022;11.810;2022-10-26T16:53:51;15.20;;;9.65;;
13034;SDS011;6584;48.022;11.810;2022-10-26T16:56:19;12.73;;;10.10;;
13034;SDS011;6584;48.022;11.810;2022-10-26T16:58:47;12.85;;;7.53;;
13034;SDS011;6584;48.022;11.810;2022-10-26T17:01:13;10.48;;;7.00;;
13034;SDS011;6584;48.022;11.810;2022-10-26T17:03:42;7.97;;;6.25;;
13034;SDS011;6584;48.022;11.810;2022-10-26T17:06:08;6.72;;;5.15;;
13034;SDS011;6584;48.022;11.810;2022-10-26T17:08:35;6.57;;;4.47;;
13034;SDS011;6584;48.022;11.810;2022-10-26T17:11:02;5.55;;;3.72;;
13034;SDS011;6584;48.022;11.810;2022-10-26T17:13:39;8.93;;;4.70;;
13034;SDS011;6584;48.022;11.810;2022-10-26T17:16:06;9.68;;;5.65;;
13034;SDS011;6584;48.022;11.810;2022-10-26T17:18:38;16.65;;;8.55;;
13034;SDS011;6584;48.022;11.810;2022-10-26T17:21:05;17.75;;;8.20;;
13034;SDS011;6584;48.022;11.810;2022-10-26T17:23:30;14.65;;;8.38;;
13034;SDS011;6584;48.022;11.810;2022-10-26T17:25:59;17.80;;;8.13;;
13034;SDS011;6584;48.022;11.810;2022-10-26T17:28:29;14.10;;;7.32;;